createdAt,value
2023-01-20T00:01:26.680Z,9.80
2023-01-20T00:06:31.357Z,13.37
2023-01-20T00:11:34.852Z,10.70
2023-01-20T00:16:38.441Z,15.90
2023-01-20T00:21:43.654Z,12.00
2023-01-20T00:26:46.999Z,15.00
2023-01-20T00:31:50.310Z,11.73
2023-01-20T00:36:54.985Z,9.40
2023-01-20T00:41:59.608Z,10.00
2023-01-20T00:47:02.918Z,11.60
2023-01-20T00:52:08.183Z,8.70
2023-01-20T00:57:11.519Z,11.13
2023-01-20T01:02:14.772Z,11.30
2023-01-20T01:07:20.196Z,11.43
2023-01-20T01:12:23.452Z,11.13
2023-01-20T01:17:26.797Z,10.10
2023-01-20T01:22:33.350Z,14.77
2023-01-20T01:27:36.584Z,11.57
2023-01-20T01:32:39.949Z,15.93
2023-01-20T01:37:44.750Z,12.87
2023-01-20T01:42:48.032Z,11.43
2023-01-20T01:47:57.125Z,11.70
2023-01-20T01:53:02.035Z,12.00
2023-01-20T01:58:08.080Z,10.37
2023-01-20T02:03:12.664Z,17.63
2023-01-20T02:08:17.432Z,12.73
2023-01-20T02:13:20.886Z,13.20
2023-01-20T02:19:03.047Z,18.20
2023-01-20T02:24:39.561Z,15.17
2023-01-20T02:30:20.781Z,16.87
2023-01-20T02:35:30.795Z,14.47
2023-01-20T02:40:54.739Z,12.17
2023-01-20T02:46:04.742Z,11.57
2023-01-20T02:51:14.086Z,13.20
2023-01-20T02:56:20.211Z,15.03
2023-01-20T03:01:28.114Z,12.73
2023-01-20T03:06:36.143Z,12.10
2023-01-20T03:11:44.774Z,13.57
2023-01-20T03:16:50.405Z,11.57
2023-01-20T03:21:55.058Z,13.73
2023-01-20T03:26:59.216Z,12.63
2023-01-20T03:32:04.829Z,14.30
2023-01-20T03:37:11.586Z,13.57
2023-01-20T03:42:19.701Z,11.73
2023-01-20T03:47:36.023Z,16.03
2023-01-20T03:58:12.095Z,11.30
2023-01-20T04:03:18.318Z,14.03
2023-01-20T04:08:27.120Z,11.57
2023-01-20T04:13:30.441Z,16.63
2023-01-20T04:18:33.782Z,12.87
2023-01-20T04:23:45.220Z,16.23
2023-01-20T04:28:48.507Z,12.17
2023-01-20T04:33:51.757Z,13.07
2023-01-20T04:38:56.385Z,10.90
2023-01-20T04:43:59.847Z,10.50
2023-01-20T04:49:03.345Z,11.27
2023-01-20T04:54:08.176Z,13.87
2023-01-20T04:59:11.675Z,8.90
2023-01-20T05:04:14.876Z,12.67
2023-01-20T05:09:19.484Z,12.20
2023-01-20T05:14:22.687Z,12.03
2023-01-20T05:19:26.052Z,11.77
2023-01-20T05:24:30.913Z,15.20
2023-01-20T05:29:34.105Z,12.20
2023-01-20T05:34:37.412Z,16.00
2023-01-20T05:39:42.007Z,13.93
2023-01-20T05:44:45.267Z,14.40
2023-01-20T05:49:48.735Z,9.87
2023-01-20T05:54:53.373Z,11.27
2023-01-20T06:00:08.621Z,11.50
2023-01-20T06:10:30.555Z,10.67
2023-01-20T06:15:34.216Z,14.87
2023-01-20T06:20:37.448Z,10.77
2023-01-20T06:26:01.564Z,10.57
2023-01-20T06:31:09.486Z,11.87
2023-01-20T06:36:17.077Z,16.77
2023-01-20T06:41:38.124Z,10.77
2023-01-20T06:46:41.529Z,11.17
2023-01-20T06:51:44.940Z,13.90
2023-01-20T06:56:49.521Z,12.57
2023-01-20T07:01:52.789Z,10.67
2023-01-20T07:06:56.473Z,14.30
2023-01-20T07:12:01.181Z,14.83
2023-01-20T07:17:04.448Z,12.57
2023-01-20T07:22:07.732Z,12.17
2023-01-20T07:27:12.470Z,10.27
2023-01-20T07:32:15.718Z,11.73
2023-01-20T07:37:19.217Z,8.90
2023-01-20T07:42:23.909Z,10.53
2023-01-20T07:47:27.281Z,12.17
2023-01-20T07:53:20.737Z,12.33
2023-01-20T07:58:25.543Z,11.73
2023-01-20T08:03:28.866Z,15.37
2023-01-20T08:08:32.795Z,13.20
2023-01-20T08:13:37.492Z,12.03
2023-01-20T08:18:41.601Z,12.83
2023-01-20T08:23:44.913Z,15.77
2023-01-20T08:29:14.937Z,14.13
2023-01-20T08:34:18.868Z,14.83
2023-01-20T08:39:23.120Z,14.30
2023-01-20T08:44:27.840Z,11.37
2023-01-20T08:49:31.339Z,13.63
2023-01-20T08:54:35.123Z,11.57
2023-01-20T08:59:40.010Z,10.80
2023-01-20T09:04:43.216Z,9.77
2023-01-20T09:09:46.592Z,10.70
2023-01-20T09:14:51.205Z,10.57
2023-01-20T09:19:54.661Z,11.23
2023-01-20T09:24:58.031Z,10.90
2023-01-20T09:30:02.780Z,10.60
2023-01-20T09:35:07.265Z,12.80
2023-01-20T09:40:34.961Z,11.43
2023-01-20T09:45:45.573Z,11.07
2023-01-20T09:51:13.421Z,12.67
2023-01-20T09:56:19.271Z,7.80
2023-01-20T10:01:30.847Z,8.33
2023-01-20T10:06:38.563Z,9.87
2023-01-20T10:11:44.139Z,10.53
2023-01-20T10:16:54.854Z,7.50
2023-01-20T10:22:06.038Z,8.77
2023-01-20T10:27:09.509Z,8.63
2023-01-20T10:33:03.181Z,9.50
2023-01-20T10:38:10.687Z,8.43
2023-01-20T10:43:15.906Z,8.63
2023-01-20T10:48:35.749Z,8.18
2023-01-20T10:53:52.150Z,6.77
2023-01-20T10:58:57.827Z,11.10
2023-01-20T11:04:01.148Z,11.43
2023-01-20T11:09:21.283Z,9.03
2023-01-20T11:14:26.256Z,10.23
2023-01-20T11:19:47.059Z,6.87
2023-01-20T11:24:56.066Z,6.77
2023-01-20T11:30:02.024Z,10.13
2023-01-20T11:35:25.677Z,9.47
2023-01-20T11:40:30.455Z,7.90
2023-01-20T11:45:35.680Z,8.40
2023-01-20T11:50:41.989Z,11.10
2023-01-20T11:55:52.517Z,9.67
2023-01-20T12:01:03.112Z,8.17
2023-01-20T12:06:15.192Z,7.13
2023-01-20T12:11:24.665Z,9.30
2023-01-20T12:16:31.514Z,8.13
2023-01-20T12:21:41.863Z,6.47
2023-01-20T12:26:46.567Z,5.87
2023-01-20T12:31:50.900Z,8.33
2023-01-20T12:37:08.854Z,8.77
2023-01-20T12:42:40.899Z,7.07
2023-01-20T12:47:56.239Z,7.30
2023-01-20T12:53:14.343Z,6.70
2023-01-20T12:58:34.408Z,4.27
2023-01-20T13:09:01.277Z,4.03
2023-01-20T13:14:15.535Z,5.73
2023-01-20T13:19:25.617Z,5.53
2023-01-20T13:24:30.369Z,3.20
2023-01-20T13:29:44.828Z,9.00
2023-01-20T13:34:48.192Z,6.70
2023-01-20T13:39:54.523Z,2.80
2023-01-20T13:45:18.924Z,4.35
2023-01-20T13:50:24.800Z,5.32
2023-01-20T13:55:50.972Z,3.20
2023-01-20T14:00:56.226Z,4.60
2023-01-20T14:06:01.694Z,1.85
2023-01-20T14:11:11.566Z,2.33
2023-01-20T14:16:30.632Z,4.07
2023-01-20T14:27:21.762Z,3.65
2023-01-20T14:32:28.484Z,2.92
2023-01-20T14:37:34.397Z,5.95
2023-01-20T14:48:51.816Z,8.75
2023-01-20T14:54:34.965Z,4.00
2023-01-20T14:59:40.240Z,4.57
2023-01-20T15:04:44.539Z,5.60
2023-01-20T15:09:55.098Z,5.47
2023-01-20T15:15:29.673Z,3.50
2023-01-20T15:20:34.807Z,3.57
2023-01-20T15:25:38.636Z,2.97
2023-01-20T15:30:46.308Z,5.53
2023-01-20T15:35:55.657Z,3.23
2023-01-20T15:41:06.489Z,5.27
2023-01-20T15:46:12.547Z,4.90
2023-01-20T15:51:17.733Z,3.77
2023-01-20T15:56:23.052Z,6.73
2023-01-20T16:01:29.222Z,2.27
2023-01-20T16:06:34.003Z,2.63
2023-01-20T16:11:38.254Z,4.43
2023-01-20T16:16:42.932Z,5.20
2023-01-20T16:21:46.236Z,4.17
2023-01-20T16:26:49.479Z,4.13
2023-01-20T16:31:54.348Z,2.27
2023-01-20T16:36:57.643Z,2.03
2023-01-20T16:42:00.886Z,5.27
2023-01-20T16:47:05.644Z,1.90
2023-01-20T16:52:09.016Z,2.37
2023-01-20T16:57:12.328Z,2.87
2023-01-20T17:02:17.496Z,5.73
2023-01-20T17:07:20.730Z,2.83
2023-01-20T17:12:23.941Z,3.00
2023-01-20T17:17:28.830Z,4.00
2023-01-20T17:22:32.738Z,5.93
2023-01-20T17:27:35.947Z,4.50
2023-01-20T17:32:40.438Z,4.60
2023-01-20T17:37:43.648Z,5.97
2023-01-20T17:42:46.859Z,5.43
2023-01-20T17:47:53.144Z,6.00
2023-01-20T17:52:59.438Z,5.73
2023-01-20T17:58:02.804Z,7.70
2023-01-20T18:03:09.737Z,11.30
2023-01-20T18:08:13.731Z,5.43
2023-01-20T18:13:17.077Z,7.17
2023-01-20T18:18:21.782Z,12.70
2023-01-20T18:23:25.081Z,12.13
2023-01-20T18:28:30.821Z,10.27
2023-01-20T18:33:38.325Z,9.60
2023-01-20T18:38:43.472Z,8.90
2023-01-20T18:43:47.264Z,13.87
2023-01-20T18:48:56.528Z,7.80
2023-01-20T18:54:01.139Z,14.87
2023-01-20T18:59:06.734Z,8.07
2023-01-20T19:04:13.544Z,11.30
2023-01-20T19:09:17.495Z,5.83
2023-01-20T19:14:20.805Z,8.00
2023-01-20T19:19:27.545Z,9.20
2023-01-20T19:24:30.840Z,5.60
2023-01-20T19:29:34.113Z,10.53
2023-01-20T19:34:39.340Z,7.90
2023-01-20T19:39:42.658Z,6.77
2023-01-20T19:44:46.042Z,7.60
2023-01-20T19:49:50.881Z,9.37
2023-01-20T19:54:54.197Z,6.97
2023-01-20T19:59:57.472Z,8.70
2023-01-20T20:05:02.031Z,10.10
2023-01-20T20:10:06.080Z,10.20
2023-01-20T20:15:09.947Z,7.83
2023-01-20T20:20:16.029Z,6.53
2023-01-20T20:25:19.408Z,14.07
2023-01-20T20:30:24.155Z,9.20
2023-01-20T20:35:28.735Z,10.40
2023-01-20T20:40:32.049Z,10.97
2023-01-20T20:45:35.366Z,8.10
2023-01-20T20:50:40.025Z,9.30
2023-01-20T20:55:43.608Z,8.73
2023-01-20T21:00:50.854Z,13.20
2023-01-20T21:05:55.559Z,13.73
2023-01-20T21:11:00.880Z,12.63
2023-01-20T21:16:09.684Z,12.83
2023-01-20T21:21:19.330Z,9.77
2023-01-20T21:26:23.367Z,8.47
2023-01-20T21:31:27.180Z,9.27
2023-01-20T21:36:34.028Z,9.30
2023-01-20T21:41:37.475Z,12.33
2023-01-20T21:46:41.599Z,9.40
2023-01-20T21:52:03.920Z,7.93
2023-01-20T21:57:07.134Z,7.57
2023-01-20T22:02:13.239Z,7.73
2023-01-20T22:07:17.962Z,9.73
2023-01-20T22:12:21.311Z,8.87
2023-01-20T22:17:24.930Z,12.00
2023-01-20T22:22:33.838Z,15.83
2023-01-20T22:27:37.112Z,11.77
2023-01-20T22:32:40.457Z,6.57
2023-01-20T22:37:45.163Z,10.10
2023-01-20T22:42:48.746Z,8.93
2023-01-20T22:47:52.104Z,10.50
2023-01-20T22:52:56.908Z,10.30
2023-01-20T22:58:00.331Z,13.83
2023-01-20T23:03:03.554Z,10.40
2023-01-20T23:08:08.214Z,11.37
2023-01-20T23:13:11.470Z,10.80
2023-01-20T23:18:14.756Z,10.07
2023-01-20T23:23:21.095Z,11.40
2023-01-20T23:28:24.362Z,10.20
2023-01-20T23:33:27.602Z,10.20
2023-01-20T23:38:32.513Z,12.37
2023-01-20T23:43:35.791Z,11.00
2023-01-20T23:48:40.661Z,7.80
2023-01-20T23:53:45.455Z,12.87
2023-01-20T23:58:49.759Z,10.97
